首页
METAR-TAF:

METAR-TAF

机场 :

Omak Airport

Omak, 华盛顿, 美国

纬度: 48-27-51N, 经度: 119-31-05W, 海拔: 397米

当前天气观测

该预报发布于16分钟前的10:53 UTC
风速8节,风向西转西北
温度 5°C
湿度 48%
气压 1019 hPa
能見度: 16.1公里
天空无云

METAR: KOMK 211053Z AUTO 30008KT 10SM CLR 05/M05 A3010 RMK AO2 SLP196 T00501050

时间: 04:09 (11:09 UTC)


TAF: 丢失

超过4000个机场的气象观测和天气预报(METAR&TAF报告)。

可查询的气象台以黄色和红色小点在地图上表示。

将鼠标移到小点上方,可查看气象台名称。

然后点击查看天气观测和预报。

如需切换地图:点击带黑十字的绿色按钮放大地图;点击带横线的绿色按钮缩小地图;或者点击绿色箭头查看邻近地区的地图。


METAR-TAF: